createdAt,value
2019-01-31T00:01:43.140Z,24.83
2019-01-31T00:04:26.474Z,23.83
2019-01-31T00:06:57.991Z,23.73
2019-01-31T00:09:50.484Z,25.10
2019-01-31T00:12:34.121Z,24.40
2019-01-31T00:15:08.502Z,24.43
2019-01-31T00:17:54.722Z,25.27
2019-01-31T00:20:29.480Z,22.90
2019-01-31T00:23:23.583Z,24.37
2019-01-31T00:26:14.442Z,22.43
2019-01-31T00:28:54.673Z,22.10
2019-01-31T00:31:29.361Z,23.00
2019-01-31T00:34:04.016Z,22.30
2019-01-31T00:36:51.977Z,22.33
2019-01-31T00:39:35.569Z,21.90
2019-01-31T00:42:13.136Z,21.50
2019-01-31T00:44:56.403Z,20.90
2019-01-31T00:47:30.930Z,20.60
2019-01-31T00:50:02.831Z,22.23
2019-01-31T00:52:53.642Z,23.23
2019-01-31T00:55:36.616Z,21.90
2019-01-31T00:58:22.794Z,21.00
2019-01-31T01:01:03.104Z,22.37
2019-01-31T01:03:39.832Z,21.90
2019-01-31T01:06:14.118Z,22.10
2019-01-31T01:08:54.998Z,23.00
2019-01-31T01:11:38.311Z,21.73
2019-01-31T01:14:12.568Z,23.00
2019-01-31T01:16:53.030Z,21.03
2019-01-31T01:19:42.445Z,21.70
2019-01-31T01:22:16.660Z,20.60
2019-01-31T01:25:03.227Z,20.30
2019-01-31T01:27:37.394Z,19.93
2019-01-31T01:30:20.802Z,20.37
2019-01-31T01:32:55.367Z,19.77
2019-01-31T01:35:41.517Z,18.63
2019-01-31T01:38:27.269Z,18.90
2019-01-31T01:40:58.873Z,18.83
2019-01-31T01:43:45.091Z,19.87
2019-01-31T01:46:43.668Z,19.17
2019-01-31T01:49:29.759Z,17.63
2019-01-31T01:52:09.428Z,17.90
2019-01-31T01:54:49.769Z,18.90
2019-01-31T01:57:32.855Z,18.00
2019-01-31T02:00:04.476Z,16.90
2019-01-31T02:03:09.174Z,17.03
2019-01-31T02:05:46.568Z,16.90
2019-01-31T02:08:47.970Z,16.33
2019-01-31T02:11:25.619Z,18.03
2019-01-31T02:14:06.031Z,16.10
2019-01-31T02:16:40.307Z,15.97
2019-01-31T02:19:20.632Z,15.67
2019-01-31T02:21:58.055Z,14.87
2019-01-31T02:24:41.808Z,14.00
2019-01-31T02:27:16.225Z,14.67
2019-01-31T02:29:48.090Z,14.93
2019-01-31T02:32:46.704Z,13.80
2019-01-31T02:35:42.200Z,14.60
2019-01-31T02:38:41.863Z,13.07
2019-01-31T02:41:37.479Z,12.17
2019-01-31T02:44:09.135Z,12.60
2019-01-31T02:46:57.202Z,13.70
2019-01-31T02:49:34.707Z,12.67
2019-01-31T02:52:09.111Z,11.80
2019-01-31T02:54:40.955Z,12.10
2019-01-31T02:57:18.059Z,11.50
2019-01-31T03:00:01.183Z,12.73
2019-01-31T03:02:35.403Z,12.10
2019-01-31T03:05:12.587Z,10.80
2019-01-31T03:08:02.096Z,10.90
2019-01-31T03:10:33.895Z,12.10
2019-01-31T03:13:16.912Z,12.13
2019-01-31T03:16:07.826Z,11.77
2019-01-31T03:18:50.929Z,11.33
2019-01-31T03:21:34.309Z,11.67
2019-01-31T03:24:20.763Z,10.03
2019-01-31T03:27:08.906Z,11.77
2019-01-31T03:29:46.469Z,11.50
2019-01-31T03:32:26.083Z,11.20
2019-01-31T03:35:14.042Z,11.00
2019-01-31T03:37:59.935Z,10.67
2019-01-31T03:40:37.754Z,10.60
2019-01-31T03:43:30.207Z,10.83
2019-01-31T03:46:16.868Z,11.20
2019-01-31T03:49:02.936Z,10.27
2019-01-31T03:51:58.255Z,9.70
2019-01-31T03:54:46.259Z,9.30
2019-01-31T03:57:29.502Z,10.40
2019-01-31T04:00:01.076Z,9.77
2019-01-31T04:02:32.594Z,10.20
2019-01-31T04:05:21.763Z,10.07
2019-01-31T04:07:50.202Z,10.80
2019-01-31T04:10:19.372Z,10.70
2019-01-31T04:12:47.981Z,10.50
2019-01-31T04:15:16.822Z,10.90
2019-01-31T04:17:45.567Z,9.83
2019-01-31T04:20:14.538Z,9.37
2019-01-31T04:22:43.013Z,9.03
2019-01-31T04:25:11.797Z,9.80
2019-01-31T04:27:40.852Z,10.00
2019-01-31T04:30:12.671Z,9.70
2019-01-31T04:32:41.524Z,9.37
2019-01-31T04:35:10.158Z,9.20
2019-01-31T04:37:38.868Z,9.37
2019-01-31T04:40:09.425Z,10.10
2019-01-31T04:42:38.113Z,10.00
2019-01-31T04:45:09.362Z,10.43
2019-01-31T04:47:37.942Z,10.97
2019-01-31T04:50:09.558Z,10.17
2019-01-31T04:52:38.473Z,9.07
2019-01-31T04:55:07.854Z,9.57
2019-01-31T04:57:36.361Z,9.30
2019-01-31T05:00:08.206Z,9.47
2019-01-31T05:02:36.930Z,10.03
2019-01-31T05:05:07.151Z,10.17
2019-01-31T05:07:35.907Z,10.70
2019-01-31T05:10:07.560Z,10.90
2019-01-31T05:12:36.331Z,9.97
2019-01-31T05:15:08.187Z,9.80
2019-01-31T05:17:36.987Z,8.80
2019-01-31T05:20:08.550Z,9.00
2019-01-31T05:22:37.399Z,10.53
2019-01-31T05:25:08.070Z,10.10
2019-01-31T05:27:36.920Z,10.50
2019-01-31T05:30:08.117Z,11.23
2019-01-31T05:32:37.186Z,10.63
2019-01-31T05:35:07.298Z,10.27
2019-01-31T05:37:35.789Z,10.00
2019-01-31T05:40:07.194Z,10.50
2019-01-31T05:42:35.747Z,11.07
2019-01-31T05:45:06.828Z,10.50
2019-01-31T05:47:35.630Z,9.63
2019-01-31T05:50:05.988Z,10.60
2019-01-31T05:52:34.513Z,10.50
2019-01-31T05:55:03.051Z,10.43
2019-01-31T05:57:31.862Z,9.43
2019-01-31T06:00:00.363Z,9.70
2019-01-31T06:02:29.251Z,9.97
2019-01-31T06:04:57.783Z,10.20
2019-01-31T06:07:26.314Z,10.13
2019-01-31T06:09:54.801Z,10.50
2019-01-31T06:12:23.289Z,9.97
2019-01-31T06:14:52.042Z,12.03
2019-01-31T06:17:20.598Z,13.00
2019-01-31T06:19:49.197Z,11.27
2019-01-31T06:22:17.795Z,11.00
2019-01-31T06:24:46.294Z,11.70
2019-01-31T06:27:14.843Z,10.30
2019-01-31T06:29:43.395Z,11.40
2019-01-31T06:32:12.044Z,11.93
2019-01-31T06:34:40.615Z,11.20
2019-01-31T06:37:09.273Z,10.40
2019-01-31T06:39:38.180Z,15.67
2019-01-31T06:42:06.809Z,12.03
2019-01-31T06:44:35.370Z,11.17
2019-01-31T06:47:03.954Z,11.10
2019-01-31T06:49:32.754Z,11.10
2019-01-31T06:52:01.491Z,12.07
2019-01-31T06:54:30.083Z,12.77
2019-01-31T06:56:58.622Z,10.77
2019-01-31T06:59:27.102Z,10.83
2019-01-31T07:01:55.684Z,11.80
2019-01-31T07:04:24.170Z,12.97
2019-01-31T07:06:52.738Z,13.10
2019-01-31T07:09:21.333Z,14.17
2019-01-31T07:11:49.952Z,15.07
2019-01-31T07:14:18.430Z,14.43
2019-01-31T07:16:47.289Z,12.90
2019-01-31T07:19:15.851Z,12.77
2019-01-31T07:21:44.678Z,12.03
2019-01-31T07:24:13.147Z,10.27
2019-01-31T07:26:41.693Z,11.77
2019-01-31T07:29:10.161Z,10.60
2019-01-31T07:31:38.911Z,10.93
2019-01-31T07:34:07.627Z,12.17
2019-01-31T07:36:36.094Z,10.87
2019-01-31T07:39:06.980Z,11.50
2019-01-31T07:41:41.415Z,11.73
2019-01-31T07:44:06.172Z,11.30
2019-01-31T07:46:35.063Z,11.07
2019-01-31T07:49:03.520Z,11.67
2019-01-31T07:51:31.970Z,11.40
2019-01-31T07:54:01.780Z,11.50
2019-01-31T07:56:30.272Z,12.17
2019-01-31T07:58:59.041Z,12.60
2019-01-31T08:01:27.488Z,13.40
2019-01-31T08:04:02.530Z,13.27
2019-01-31T08:06:26.488Z,13.83
2019-01-31T08:08:55.341Z,12.37
2019-01-31T08:11:24.019Z,13.27
2019-01-31T08:13:52.505Z,13.83
2019-01-31T08:16:20.943Z,13.83
2019-01-31T08:18:49.746Z,14.80
2019-01-31T08:21:18.299Z,14.70
2019-01-31T08:23:46.845Z,13.87
2019-01-31T08:26:15.459Z,15.63
2019-01-31T08:28:44.029Z,12.70
2019-01-31T08:31:12.497Z,12.50
2019-01-31T08:33:41.039Z,13.33
2019-01-31T08:36:09.680Z,13.23
2019-01-31T08:38:38.563Z,13.17
2019-01-31T08:41:07.341Z,14.00
2019-01-31T08:43:36.138Z,13.60
2019-01-31T08:46:04.742Z,13.33
2019-01-31T08:48:33.504Z,13.90
2019-01-31T08:51:02.059Z,15.30
2019-01-31T08:53:30.548Z,13.80
2019-01-31T08:55:59.392Z,13.43
2019-01-31T08:58:28.026Z,13.30
2019-01-31T09:00:56.602Z,13.73
2019-01-31T09:03:25.207Z,14.77
2019-01-31T09:05:53.649Z,15.83
2019-01-31T09:08:22.460Z,14.77
2019-01-31T09:10:51.313Z,13.23
2019-01-31T09:13:19.876Z,13.93
2019-01-31T09:15:48.464Z,13.93
2019-01-31T09:18:17.295Z,13.27
2019-01-31T09:20:52.223Z,13.17
2019-01-31T09:23:50.084Z,14.20
2019-01-31T09:26:37.988Z,14.30
2019-01-31T09:29:15.291Z,14.17
2019-01-31T09:32:21.368Z,13.60
2019-01-31T09:34:58.936Z,15.13
2019-01-31T09:38:03.625Z,14.63
2019-01-31T09:40:52.900Z,13.67
2019-01-31T09:43:27.316Z,14.10
2019-01-31T09:46:17.959Z,14.10
2019-01-31T09:48:55.611Z,15.30
2019-01-31T09:51:35.998Z,15.50
2019-01-31T09:54:10.940Z,13.73
2019-01-31T09:56:58.726Z,13.33
2019-01-31T09:59:38.947Z,12.80
2019-01-31T10:02:35.495Z,12.30
2019-01-31T10:05:09.928Z,13.23
2019-01-31T10:07:55.823Z,12.90
2019-01-31T10:10:51.295Z,11.60
2019-01-31T10:13:40.879Z,10.83
2019-01-31T10:16:18.088Z,10.87
2019-01-31T10:18:52.457Z,11.60
2019-01-31T10:21:23.996Z,10.00
2019-01-31T10:23:58.450Z,10.53
2019-01-31T10:26:38.618Z,10.90
2019-01-31T10:29:21.932Z,10.80
2019-01-31T10:32:10.890Z,11.90
2019-01-31T10:34:48.498Z,11.57
2019-01-31T10:37:19.992Z,10.73
2019-01-31T10:40:22.994Z,10.70
2019-01-31T10:43:03.456Z,11.17
2019-01-31T10:45:52.582Z,12.17
2019-01-31T10:48:32.670Z,10.13
2019-01-31T10:51:04.458Z,11.07
2019-01-31T10:53:50.145Z,9.53
2019-01-31T10:56:45.156Z,10.17
2019-01-31T10:59:22.529Z,10.10
2019-01-31T11:01:54.359Z,9.90
2019-01-31T11:04:28.474Z,10.50
2019-01-31T11:07:23.971Z,10.60
2019-01-31T11:10:22.420Z,18.03
2019-01-31T11:13:14.869Z,11.77
2019-01-31T11:16:02.524Z,9.00
2019-01-31T11:18:34.328Z,25.93
2019-01-31T11:21:08.482Z,16.77
2019-01-31T11:23:45.851Z,10.30
2019-01-31T11:26:29.195Z,8.43
2019-01-31T11:29:09.314Z,10.70
2019-01-31T11:31:49.561Z,9.90
2019-01-31T11:34:42.067Z,9.27
2019-01-31T11:37:31.676Z,8.70
2019-01-31T11:40:03.479Z,14.93
2019-01-31T11:42:51.499Z,12.60
2019-01-31T11:45:26.022Z,11.73
2019-01-31T11:48:15.318Z,12.53
2019-01-31T11:51:06.070Z,13.23
2019-01-31T11:53:46.449Z,11.90
2019-01-31T11:56:23.897Z,11.30
2019-01-31T11:59:00.652Z,11.00
2019-01-31T12:01:29.431Z,10.30
2019-01-31T12:04:01.407Z,10.87
2019-01-31T12:06:30.218Z,10.73
2019-01-31T12:08:58.759Z,10.40
2019-01-31T12:11:27.298Z,11.03
2019-01-31T12:13:55.733Z,9.03
2019-01-31T12:16:24.351Z,7.50
2019-01-31T12:18:52.773Z,10.83
2019-01-31T12:21:21.491Z,11.00
2019-01-31T12:23:49.955Z,12.20
2019-01-31T12:26:18.411Z,9.57
2019-01-31T12:28:46.853Z,10.60
2019-01-31T12:31:15.383Z,10.60
2019-01-31T12:33:44.082Z,9.07
2019-01-31T12:36:12.532Z,8.67
2019-01-31T12:38:41.099Z,8.03
2019-01-31T12:41:09.631Z,9.30
2019-01-31T12:43:38.060Z,9.30
2019-01-31T12:46:06.511Z,10.00
2019-01-31T12:48:35.030Z,10.27
2019-01-31T12:51:03.660Z,11.20
2019-01-31T12:53:32.119Z,10.90
2019-01-31T12:56:00.683Z,11.00
2019-01-31T12:58:33.770Z,10.33
2019-01-31T13:00:59.292Z,12.13
2019-01-31T13:03:27.728Z,10.77
2019-01-31T13:05:56.251Z,11.80
2019-01-31T13:08:24.935Z,12.97
2019-01-31T13:10:53.384Z,11.67
2019-01-31T13:13:21.886Z,12.37
2019-01-31T13:15:50.783Z,12.93
2019-01-31T13:18:19.499Z,13.57
2019-01-31T13:20:48.272Z,10.87
2019-01-31T13:23:16.975Z,12.07
2019-01-31T13:25:45.819Z,12.93
2019-01-31T13:28:14.764Z,11.60
2019-01-31T13:30:43.207Z,13.23
2019-01-31T13:33:11.782Z,14.87
2019-01-31T13:35:40.551Z,16.53
2019-01-31T13:38:09.190Z,14.70
2019-01-31T13:40:37.963Z,15.57
2019-01-31T13:43:06.730Z,16.90
2019-01-31T13:45:35.807Z,15.40
2019-01-31T13:48:07.256Z,14.70
2019-01-31T13:50:35.946Z,15.10
2019-01-31T13:53:06.498Z,14.80
2019-01-31T13:55:35.257Z,16.93
2019-01-31T13:58:03.998Z,15.33
2019-01-31T14:00:32.708Z,14.60
2019-01-31T14:03:01.162Z,14.97
2019-01-31T14:05:30.157Z,16.07
2019-01-31T14:07:58.936Z,15.17
2019-01-31T14:10:27.860Z,18.00
2019-01-31T14:12:57.117Z,18.20
2019-01-31T14:15:33.559Z,18.17
2019-01-31T14:17:58.307Z,18.17
2019-01-31T14:20:28.074Z,17.80
2019-01-31T14:22:56.686Z,18.03
2019-01-31T14:25:25.119Z,16.83
2019-01-31T14:27:53.697Z,18.67
2019-01-31T14:30:25.273Z,18.40
2019-01-31T14:32:54.000Z,20.53
2019-01-31T14:35:22.494Z,18.70
2019-01-31T14:37:51.091Z,23.90
2019-01-31T14:40:19.603Z,25.13
2019-01-31T14:42:48.036Z,22.33
2019-01-31T14:45:17.411Z,21.93
2019-01-31T14:47:45.859Z,22.80
2019-01-31T14:50:25.980Z,22.37
2019-01-31T14:52:56.925Z,22.00
2019-01-31T14:55:24.707Z,21.97
2019-01-31T14:57:53.218Z,21.97
2019-01-31T15:00:33.940Z,23.57
2019-01-31T15:03:02.383Z,21.60
2019-01-31T15:05:30.907Z,23.10
2019-01-31T15:07:59.661Z,23.10
2019-01-31T15:10:29.632Z,22.27
2019-01-31T15:12:58.541Z,20.67
2019-01-31T15:15:27.103Z,20.00
2019-01-31T15:17:56.155Z,20.70
2019-01-31T15:20:35.857Z,20.73
2019-01-31T15:22:57.613Z,20.93
2019-01-31T15:25:26.039Z,19.90
2019-01-31T15:27:54.551Z,19.07
2019-01-31T15:30:28.811Z,18.60
2019-01-31T15:32:57.610Z,19.50
2019-01-31T15:35:26.074Z,18.70
2019-01-31T15:37:54.519Z,18.03
2019-01-31T15:40:29.075Z,18.57
2019-01-31T15:42:57.598Z,18.10
2019-01-31T15:45:26.115Z,18.37
2019-01-31T15:47:54.559Z,17.67
2019-01-31T15:50:23.059Z,17.60
2019-01-31T15:52:51.629Z,17.43
2019-01-31T15:55:25.209Z,17.07
2019-01-31T15:57:53.795Z,16.43
2019-01-31T16:00:40.619Z,18.37
2019-01-31T16:03:11.102Z,17.30
2019-01-31T16:05:39.715Z,16.97
2019-01-31T16:08:08.862Z,17.43
2019-01-31T16:10:37.474Z,17.87
2019-01-31T16:13:06.789Z,18.20
2019-01-31T16:15:35.919Z,23.33
2019-01-31T16:18:05.120Z,23.63
2019-01-31T16:20:33.811Z,22.33
2019-01-31T16:23:02.299Z,32.57
2019-01-31T16:25:30.734Z,24.53
2019-01-31T16:27:59.519Z,20.83
2019-01-31T16:30:28.083Z,20.50
2019-01-31T16:32:56.846Z,20.20
2019-01-31T16:35:25.295Z,19.43
2019-01-31T16:37:53.787Z,18.20
2019-01-31T16:40:22.636Z,17.40
2019-01-31T16:42:51.127Z,17.83
2019-01-31T16:45:20.116Z,15.90
2019-01-31T16:47:48.577Z,16.30
2019-01-31T16:50:18.679Z,16.90
2019-01-31T16:52:47.586Z,15.80
2019-01-31T16:55:27.678Z,16.53
2019-01-31T16:57:57.046Z,15.40
2019-01-31T17:00:32.806Z,16.43
2019-01-31T17:03:01.323Z,16.00
2019-01-31T17:05:31.871Z,15.37
2019-01-31T17:08:00.713Z,16.43
2019-01-31T17:10:29.298Z,19.83
2019-01-31T17:12:58.107Z,21.50
2019-01-31T17:15:26.947Z,17.27
2019-01-31T17:17:55.495Z,16.63
2019-01-31T17:20:38.284Z,16.80
2019-01-31T17:23:06.849Z,17.03
2019-01-31T17:25:35.412Z,16.20
2019-01-31T17:28:04.297Z,17.33
2019-01-31T17:30:33.246Z,18.03
2019-01-31T17:33:01.991Z,16.33
2019-01-31T17:35:30.431Z,15.57
2019-01-31T17:37:58.938Z,15.73
2019-01-31T17:40:29.735Z,15.10
2019-01-31T17:42:58.162Z,16.00
2019-01-31T17:45:30.373Z,15.20
2019-01-31T17:47:57.666Z,16.30
2019-01-31T17:50:26.434Z,17.13
2019-01-31T17:52:55.215Z,16.93
2019-01-31T17:55:25.698Z,16.90
2019-01-31T17:57:54.267Z,16.93
2019-01-31T18:00:32.825Z,16.70
2019-01-31T18:03:01.560Z,16.90
2019-01-31T18:05:30.039Z,16.67
2019-01-31T18:07:58.475Z,18.40
2019-01-31T18:10:26.993Z,21.30
2019-01-31T18:12:55.407Z,22.93
2019-01-31T18:15:23.863Z,20.63
2019-01-31T18:17:52.547Z,20.27
2019-01-31T18:20:23.015Z,24.67
2019-01-31T18:22:51.628Z,24.13
2019-01-31T18:25:20.092Z,24.53
2019-01-31T18:27:48.525Z,20.57
2019-01-31T18:30:23.026Z,18.87
2019-01-31T18:32:51.499Z,18.27
2019-01-31T18:35:20.030Z,17.03
2019-01-31T18:37:48.526Z,18.73
2019-01-31T18:40:25.080Z,17.20
2019-01-31T18:42:53.746Z,20.13
2019-01-31T18:45:27.275Z,19.73
2019-01-31T18:47:55.815Z,22.60
2019-01-31T18:50:29.761Z,18.70
2019-01-31T18:52:58.318Z,18.90
2019-01-31T18:55:27.616Z,18.53
2019-01-31T18:57:56.331Z,17.50
2019-01-31T19:00:31.095Z,19.03
2019-01-31T19:02:59.666Z,18.90
2019-01-31T19:05:28.206Z,18.57
2019-01-31T19:07:56.638Z,19.90
2019-01-31T19:10:25.146Z,18.20
2019-01-31T19:12:53.746Z,18.90
2019-01-31T19:15:24.650Z,19.20
2019-01-31T19:17:53.100Z,17.80
2019-01-31T19:20:28.096Z,19.10
2019-01-31T19:22:58.136Z,18.80
2019-01-31T19:25:27.131Z,19.40
2019-01-31T19:27:55.809Z,17.90
2019-01-31T19:30:35.240Z,18.40
2019-01-31T19:33:04.702Z,17.13
2019-01-31T19:35:33.208Z,21.73
2019-01-31T19:38:02.561Z,20.00
2019-01-31T19:40:36.485Z,17.80
2019-01-31T19:43:05.498Z,21.57
2019-01-31T19:45:42.411Z,18.47
2019-01-31T19:48:11.518Z,19.50
2019-01-31T19:50:40.029Z,25.37
2019-01-31T19:53:08.707Z,19.30
2019-01-31T19:55:37.392Z,18.90
2019-01-31T19:58:06.419Z,23.17
2019-01-31T20:00:35.014Z,21.43
2019-01-31T20:03:03.422Z,23.80
2019-01-31T20:05:32.280Z,18.63
2019-01-31T20:08:00.854Z,20.50
2019-01-31T20:10:31.419Z,19.10
2019-01-31T20:13:00.349Z,20.37
2019-01-31T20:15:29.488Z,15.83
2019-01-31T20:17:58.695Z,15.40
2019-01-31T20:20:29.139Z,17.53
2019-01-31T20:22:58.511Z,16.83
2019-01-31T20:25:28.382Z,15.80
2019-01-31T20:27:57.444Z,16.43
2019-01-31T20:30:31.472Z,16.47
2019-01-31T20:33:00.939Z,16.93
2019-01-31T20:35:29.829Z,16.20
2019-01-31T20:37:58.519Z,16.07
2019-01-31T20:40:29.750Z,23.40
2019-01-31T20:42:58.309Z,18.17
2019-01-31T20:45:26.838Z,16.20
2019-01-31T20:47:55.399Z,15.00
2019-01-31T20:50:26.807Z,15.67
2019-01-31T20:52:55.842Z,15.63
2019-01-31T20:55:24.358Z,19.40
2019-01-31T20:57:53.091Z,21.43
2019-01-31T21:00:26.431Z,19.93
2019-01-31T21:02:55.114Z,19.93
2019-01-31T21:05:26.063Z,19.57
2019-01-31T21:07:53.842Z,19.60
2019-01-31T21:10:22.330Z,19.40
2019-01-31T21:12:51.030Z,27.17
2019-01-31T21:15:22.094Z,25.80
2019-01-31T21:17:50.786Z,19.60
2019-01-31T21:20:22.048Z,16.27
2019-01-31T21:22:51.027Z,17.87
2019-01-31T21:25:19.711Z,24.33
2019-01-31T21:27:49.191Z,14.80
2019-01-31T21:30:20.713Z,14.17
2019-01-31T21:32:49.426Z,14.43
2019-01-31T21:35:20.063Z,14.27
2019-01-31T21:37:48.772Z,14.90
2019-01-31T21:40:19.164Z,16.27
2019-01-31T21:42:47.759Z,37.40
2019-01-31T21:45:18.563Z,18.97
2019-01-31T21:47:47.020Z,16.70
2019-01-31T21:50:18.122Z,19.93
2019-01-31T21:52:46.646Z,15.60
2019-01-31T21:55:15.854Z,14.33
2019-01-31T21:57:44.386Z,13.70
2019-01-31T22:00:24.879Z,14.07
2019-01-31T22:02:53.510Z,14.40
2019-01-31T22:05:22.001Z,15.87
2019-01-31T22:07:50.963Z,14.53
2019-01-31T22:10:20.540Z,14.97
2019-01-31T22:12:49.335Z,13.87
2019-01-31T22:15:20.163Z,13.53
2019-01-31T22:17:48.607Z,12.53
2019-01-31T22:20:17.262Z,12.23
2019-01-31T22:22:45.962Z,11.33
2019-01-31T22:25:16.323Z,11.77
2019-01-31T22:27:44.920Z,15.13
2019-01-31T22:30:27.437Z,19.70
2019-01-31T22:32:55.875Z,19.50
2019-01-31T22:35:24.301Z,17.77
2019-01-31T22:37:53.179Z,25.27
2019-01-31T22:40:21.758Z,20.20
2019-01-31T22:42:50.531Z,12.83
2019-01-31T22:45:21.124Z,22.40
2019-01-31T22:47:49.971Z,18.10
2019-01-31T22:50:20.328Z,16.73
2019-01-31T22:52:49.102Z,22.70
2019-01-31T22:55:20.130Z,19.17
2019-01-31T22:57:48.702Z,15.57
2019-01-31T23:00:45.418Z,17.90
2019-01-31T23:03:13.958Z,14.40
2019-01-31T23:05:42.550Z,11.00
2019-01-31T23:08:10.990Z,10.60
2019-01-31T23:10:39.427Z,11.00
2019-01-31T23:13:08.119Z,10.70
2019-01-31T23:15:36.554Z,10.23
2019-01-31T23:18:06.487Z,9.10
2019-01-31T23:20:34.978Z,10.37
2019-01-31T23:23:03.403Z,9.00
2019-01-31T23:25:39.854Z,9.93
2019-01-31T23:28:01.991Z,9.63
2019-01-31T23:30:30.440Z,8.93
2019-01-31T23:32:58.866Z,9.57
2019-01-31T23:35:27.314Z,8.50
2019-01-31T23:37:55.752Z,9.50
2019-01-31T23:40:24.194Z,9.80
2019-01-31T23:42:52.614Z,9.57
2019-01-31T23:45:21.498Z,9.40
2019-01-31T23:47:49.990Z,9.67
2019-01-31T23:50:18.444Z,9.77
2019-01-31T23:52:46.861Z,9.43
2019-01-31T23:55:18.587Z,10.43
2019-01-31T23:57:47.342Z,10.40
